Time;durP1;ratioP1;P1;durP2;ratioP2;P2;SDS_P1;SDS_P2;PMS_P1;PMS_P2;Temp;Humidity;BMP_temperature;BMP_pressure;BME280_temperature;BME280_humidity;BME280_pressure;Samples;Min_cycle;Max_cycle;Signal;HPM_P1;HPM_P2
2022/12/18 00:00:44;;;;;;;2.23;1.40;;;7.70;94.40;;;;;;5081476;28;20178;-70
2022/12/18 00:03:10;;;;;;;1.90;1.80;;;7.50;94.10;;;;;;5078246;28;20186;-70
2022/12/18 00:05:36;;;;;;;1.80;1.70;;;7.40;94.40;;;;;;5082184;28;20617;-71
2022/12/18 00:08:02;;;;;;;1.47;1.30;;;7.40;94.50;;;;;;5079422;28;20316;-71
2022/12/18 00:10:29;;;;;;;1.90;1.60;;;7.40;94.60;;;;;;5081581;28;20602;-71
2022/12/18 00:12:54;;;;;;;1.50;1.40;;;7.30;94.60;;;;;;5080487;28;20221;-71
2022/12/18 00:15:20;;;;;;;1.43;1.43;;;7.20;94.60;;;;;;5083595;28;20186;-69
2022/12/18 00:17:46;;;;;;;1.83;1.73;;;7.20;94.70;;;;;;5085389;28;20186;-70
2022/12/18 00:20:11;;;;;;;2.30;1.30;;;7.10;95.00;;;;;;5084443;28;20690;-71
2022/12/18 00:22:37;;;;;;;1.73;1.57;;;7.10;94.90;;;;;;5083659;28;21192;-72
2022/12/18 00:25:03;;;;;;;1.57;1.53;;;7.10;94.90;;;;;;5082736;28;20186;-71
2022/12/18 00:27:29;;;;;;;2.00;1.90;;;7.10;94.90;;;;;;5084572;28;20210;-71
2022/12/18 00:29:54;;;;;;;3.97;1.67;;;7.10;95.00;;;;;;5085949;28;20208;-71
2022/12/18 00:32:20;;;;;;;2.53;2.33;;;7.00;94.80;;;;;;5085984;28;20707;-70
2022/12/18 00:34:46;;;;;;;1.77;1.67;;;7.00;94.90;;;;;;5084680;28;21991;-70
2022/12/18 00:37:11;;;;;;;1.70;1.60;;;6.90;94.80;;;;;;5086522;28;20178;-70
2022/12/18 00:39:37;;;;;;;2.17;2.07;;;6.90;94.90;;;;;;5087283;28;20193;-71
2022/12/18 00:44:47;;;;;;;1.70;1.60;;;6.90;94.90;;;;;;5083760;28;20217;-70
2022/12/18 00:47:12;;;;;;;1.43;1.43;;;6.90;94.70;;;;;;5085289;28;20217;-71
2022/12/18 00:49:38;;;;;;;2.03;1.93;;;6.80;94.80;;;;;;5084718;28;20182;-71
2022/12/18 00:52:04;;;;;;;3.00;2.77;;;6.70;94.60;;;;;;5083389;28;20291;-71
2022/12/18 00:54:30;;;;;;;1.90;1.80;;;6.70;94.80;;;;;;5084420;28;20178;-72
2022/12/18 00:56:55;;;;;;;2.27;2.17;;;6.70;94.70;;;;;;5083977;28;20190;-71
2022/12/18 00:59:21;;;;;;;2.07;1.97;;;6.80;94.60;;;;;;5082810;28;20179;-70
2022/12/18 01:01:47;;;;;;;2.27;2.17;;;6.70;94.40;;;;;;5083541;28;20209;-71
2022/12/18 01:04:13;;;;;;;3.17;1.90;;;6.60;94.60;;;;;;5084743;28;20579;-70
2022/12/18 01:06:39;;;;;;;2.37;2.17;;;6.60;94.70;;;;;;5084841;28;20578;-70
2022/12/18 01:09:05;;;;;;;2.10;2.00;;;6.60;94.60;;;;;;5082146;28;20197;-70
2022/12/18 01:11:31;;;;;;;2.00;1.90;;;6.60;94.70;;;;;;5085292;28;20182;-70
2022/12/18 01:13:56;;;;;;;2.00;1.90;;;6.50;94.70;;;;;;5083721;28;20182;-70
2022/12/18 01:16:22;;;;;;;1.47;1.37;;;6.40;94.80;;;;;;5080146;28;20179;-70
2022/12/18 01:18:52;;;;;;;2.00;1.80;;;6.30;94.70;;;;;;5082569;28;20186;-70
2022/12/18 01:21:18;;;;;;;1.73;1.63;;;6.20;94.90;;;;;;5083561;28;20218;-71
2022/12/18 01:23:43;;;;;;;2.07;1.97;;;6.10;94.90;;;;;;5083211;28;20209;-70
2022/12/18 01:26:12;;;;;;;1.97;1.83;;;6.10;95.00;;;;;;5083106;28;20182;-70
2022/12/18 01:28:37;;;;;;;2.23;2.03;;;6.20;94.80;;;;;;5084141;28;20220;-71
2022/12/18 01:31:27;;;;;;;2.90;2.70;;;6.20;94.80;;;;;;5085367;28;20178;-70
2022/12/18 01:33:54;;;;;;;2.40;2.20;;;6.10;94.70;;;;;;5083669;28;20240;-70
2022/12/18 01:36:26;;;;;;;2.57;2.37;;;6.10;94.80;;;;;;5083265;28;20174;-70
2022/12/18 01:38:53;;;;;;;2.13;2.03;;;6.20;94.50;;;;;;5082194;28;20178;-70
2022/12/18 01:41:22;;;;;;;1.40;1.30;;;6.10;94.60;;;;;;5082001;28;20607;-69
2022/12/18 01:43:50;;;;;;;2.73;2.40;;;6.20;94.30;;;;;;5083827;28;20182;-71
2022/12/18 01:46:17;;;;;;;2.30;2.20;;;6.10;94.60;;;;;;5082637;28;20178;-70
2022/12/18 01:48:46;;;;;;;2.60;2.40;;;6.10;94.60;;;;;;5083712;28;20184;-71
2022/12/18 01:51:13;;;;;;;2.97;2.50;;;6.10;94.70;;;;;;5082001;28;20186;-70
2022/12/18 01:53:43;;;;;;;2.90;2.00;;;6.20;94.60;;;;;;5084442;28;20182;-71
2022/12/18 01:56:16;;;;;;;1.93;1.83;;;6.10;94.60;;;;;;5082456;28;20236;-70
2022/12/18 01:58:54;;;;;;;1.83;1.73;;;6.10;94.60;;;;;;5084330;28;20744;-70
2022/12/18 02:01:22;;;;;;;1.43;1.17;;;6.20;94.50;;;;;;5081887;28;20263;-70
2022/12/18 02:03:48;;;;;;;3.43;2.00;;;6.10;94.40;;;;;;5080695;28;20179;-71
2022/12/18 02:06:37;;;;;;;2.37;2.10;;;6.10;94.10;;;;;;5083912;28;21049;-70
2022/12/18 02:09:19;;;;;;;2.07;1.43;;;6.00;94.50;;;;;;5084063;28;20687;-70
2022/12/18 02:12:18;;;;;;;1.60;1.50;;;6.10;94.40;;;;;;5081616;28;20186;-71
2022/12/18 02:15:19;;;;;;;2.77;1.80;;;6.10;94.20;;;;;;5083222;28;20278;-71
2022/12/18 02:17:54;;;;;;;2.00;1.90;;;6.10;94.20;;;;;;5079313;28;20276;-71
2022/12/18 02:20:25;;;;;;;2.27;2.10;;;6.10;94.20;;;;;;5082520;28;20178;-71
2022/12/18 02:23:15;;;;;;;3.73;1.67;;;6.10;94.20;;;;;;5081222;28;20225;-71
2022/12/18 02:26:19;;;;;;;1.87;1.60;;;6.10;94.10;;;;;;5082074;28;20187;-71
2022/12/18 02:28:52;;;;;;;2.07;1.97;;;6.10;94.00;;;;;;5081086;28;20186;-73
2022/12/18 02:31:23;;;;;;;2.80;2.60;;;6.10;94.00;;;;;;5080794;28;20682;-71
2022/12/18 02:33:50;;;;;;;2.37;2.27;;;6.10;93.90;;;;;;5080936;28;20178;-71
2022/12/18 02:36:18;;;;;;;1.63;1.53;;;6.10;93.80;;;;;;5082132;28;20186;-71
2022/12/18 02:38:45;;;;;;;2.10;2.00;;;6.20;93.80;;;;;;5078630;28;20247;-71
2022/12/18 02:41:12;;;;;;;1.90;1.80;;;6.10;93.70;;;;;;5081425;28;20178;-70
2022/12/18 02:43:38;;;;;;;1.70;1.70;;;6.10;93.70;;;;;;5082243;28;20182;-71
2022/12/18 02:46:35;;;;;;;1.63;1.63;;;6.10;93.40;;;;;;5083693;28;20200;-71
2022/12/18 02:49:11;;;;;;;1.93;1.83;;;6.00;93.50;;;;;;5063533;28;20812;-71
2022/12/18 02:51:59;;;;;;;2.00;1.30;;;6.00;93.80;;;;;;5064642;28;20668;-71
2022/12/18 02:54:44;;;;;;;1.17;1.17;;;5.90;93.90;;;;;;5063920;28;20235;-70
2022/12/18 02:57:54;;;;;;;1.63;1.47;;;5.90;94.00;;;;;;5066065;28;20175;-70
2022/12/18 03:00:24;;;;;;;1.60;1.50;;;5.90;94.00;;;;;;5007723;28;20196;-70
2022/12/18 03:03:03;;;;;;;1.60;1.50;;;5.80;94.10;;;;;;5002427;28;20177;-70
2022/12/18 03:05:34;;;;;;;1.83;1.53;;;5.90;94.00;;;;;;5005427;28;20575;-71
2022/12/18 03:08:19;;;;;;;1.57;1.47;;;5.80;94.10;;;;;;5003153;28;21677;-71
2022/12/18 03:11:07;;;;;;;1.53;1.43;;;5.80;94.20;;;;;;5005107;28;20196;-70
2022/12/18 03:13:47;;;;;;;1.60;1.60;;;5.80;94.20;;;;;;5001143;28;20200;-71
2022/12/18 03:16:18;;;;;;;5.17;1.80;;;5.70;94.20;;;;;;5004108;28;20235;-71
2022/12/18 03:18:53;;;;;;;2.93;1.40;;;5.60;94.40;;;;;;5004085;28;20201;-71
2022/12/18 03:21:25;;;;;;;1.70;1.60;;;5.60;94.50;;;;;;5009175;28;20279;-71
2022/12/18 03:23:53;;;;;;;2.53;2.13;;;5.60;94.40;;;;;;5005159;28;20969;-71
2022/12/18 03:26:24;;;;;;;1.73;1.57;;;5.50;94.60;;;;;;5033129;28;20194;-71
2022/12/18 03:28:53;;;;;;;2.03;1.90;;;5.50;94.50;;;;;;5038721;28;20642;-71
2022/12/18 03:31:21;;;;;;;2.00;1.90;;;5.50;94.60;;;;;;5039338;28;20228;-71
2022/12/18 03:33:59;;;;;;;1.17;1.17;;;5.50;94.60;;;;;;5038853;28;20190;-71
2022/12/18 03:36:25;;;;;;;1.97;1.87;;;5.50;94.50;;;;;;5049904;28;20182;-71
2022/12/18 03:38:51;;;;;;;1.93;1.77;;;5.50;94.40;;;;;;5081391;28;20759;-70
2022/12/18 03:41:25;;;;;;;1.17;1.17;;;5.40;94.80;;;;;;5082371;28;20580;-71
2022/12/18 03:44:10;;;;;;;3.47;1.73;;;5.40;94.80;;;;;;5080516;28;20196;-70
2022/12/18 03:46:56;;;;;;;2.07;1.93;;;5.30;94.70;;;;;;5079429;28;20307;-71
2022/12/18 03:49:25;;;;;;;2.13;1.80;;;5.30;94.70;;;;;;5079949;28;20240;-70
2022/12/18 03:52:05;;;;;;;2.13;1.90;;;5.30;94.60;;;;;;5080503;28;20256;-71
2022/12/18 03:54:32;;;;;;;1.83;1.73;;;5.30;94.60;;;;;;5079997;28;20300;-71
2022/12/18 03:57:11;;;;;;;1.87;1.77;;;5.40;94.60;;;;;;5081522;28;20178;-71
2022/12/18 03:59:38;;;;;;;2.03;1.70;;;5.30;94.40;;;;;;5080802;28;20197;-71
2022/12/18 04:02:06;;;;;;;1.63;1.53;;;5.40;94.50;;;;;;5080442;28;20258;-70
2022/12/18 04:04:33;;;;;;;1.90;1.80;;;5.40;94.20;;;;;;5079861;28;20182;-70
2022/12/18 04:06:59;;;;;;;2.07;1.83;;;5.30;94.30;;;;;;5081737;28;20246;-71
2022/12/18 04:09:25;;;;;;;2.97;2.53;;;5.30;94.30;;;;;;5081391;28;20206;-69
2022/12/18 04:11:52;;;;;;;2.67;2.40;;;5.30;94.20;;;;;;5080792;28;20750;-69
2022/12/18 04:14:17;;;;;;;2.70;2.50;;;5.40;93.90;;;;;;5081834;28;20220;-69
2022/12/18 04:16:43;;;;;;;2.03;1.93;;;5.30;93.80;;;;;;5081377;28;20209;-70
2022/12/18 04:19:09;;;;;;;2.77;2.03;;;5.20;93.60;;;;;;5080713;28;20243;-71
2022/12/18 04:21:34;;;;;;;2.80;2.10;;;5.10;93.90;;;;;;5078676;28;20871;-71
2022/12/18 04:24:00;;;;;;;2.53;2.33;;;5.20;93.70;;;;;;5079265;28;20310;-71
2022/12/18 04:26:25;;;;;;;3.23;2.07;;;5.10;93.50;;;;;;5080701;28;20921;-71
2022/12/18 04:28:51;;;;;;;3.63;2.33;;;5.20;93.70;;;;;;5079355;28;20186;-71
2022/12/18 04:31:17;;;;;;;2.77;2.50;;;5.10;93.70;;;;;;5079524;28;20217;-72
2022/12/18 04:33:42;;;;;;;1.77;1.63;;;5.10;93.90;;;;;;5079272;28;20274;-71
2022/12/18 04:36:08;;;;;;;1.67;1.57;;;5.10;93.50;;;;;;5080984;28;20259;-71
2022/12/18 04:38:34;;;;;;;2.37;1.70;;;5.10;93.50;;;;;;5079386;28;20178;-70
2022/12/18 04:40:59;;;;;;;1.90;1.70;;;5.10;93.20;;;;;;5080305;28;20770;-70
2022/12/18 04:43:25;;;;;;;2.93;2.20;;;5.10;93.00;;;;;;5078259;28;20178;-70
2022/12/18 04:45:51;;;;;;;4.83;2.57;;;5.00;92.90;;;;;;5080246;28;20349;-71
2022/12/18 04:48:16;;;;;;;5.00;2.37;;;5.00;92.80;;;;;;5079465;28;20223;-71
2022/12/18 04:50:42;;;;;;;2.90;2.63;;;5.00;92.60;;;;;;5080857;28;20183;-71
2022/12/18 04:53:08;;;;;;;2.43;2.33;;;5.10;92.60;;;;;;5079805;28;20179;-71
2022/12/18 04:55:33;;;;;;;3.17;1.87;;;5.00;91.80;;;;;;5077640;28;20198;-71
2022/12/18 04:57:59;;;;;;;1.73;1.63;;;5.10;91.70;;;;;;5080830;28;20265;-71
2022/12/18 05:00:24;;;;;;;2.63;2.43;;;5.00;91.20;;;;;;5081597;28;20315;-70
2022/12/18 05:02:50;;;;;;;2.77;2.57;;;4.80;91.30;;;;;;5084583;28;20227;-71
2022/12/18 05:05:16;;;;;;;3.87;2.97;;;4.80;91.50;;;;;;5083699;28;20304;-70
2022/12/18 05:07:42;;;;;;;4.27;2.60;;;4.80;91.40;;;;;;5082483;28;20234;-70
2022/12/18 05:10:08;;;;;;;2.90;2.57;;;4.60;91.70;;;;;;5084357;28;20253;-70
2022/12/18 05:12:33;;;;;;;4.17;3.20;;;4.60;92.10;;;;;;5082126;28;20210;-70
2022/12/18 05:14:59;;;;;;;2.93;2.57;;;4.60;92.20;;;;;;5083341;28;20222;-70
2022/12/18 05:17:25;;;;;;;5.30;3.03;;;4.60;92.40;;;;;;5083520;28;20178;-71
2022/12/18 05:19:50;;;;;;;3.60;2.70;;;4.70;92.30;;;;;;5083872;28;20179;-69
2022/12/18 05:22:16;;;;;;;4.03;2.40;;;4.60;92.20;;;;;;5081832;28;20190;-69
2022/12/18 05:24:42;;;;;;;2.90;2.70;;;4.60;92.30;;;;;;5083781;28;20178;-70
2022/12/18 05:27:07;;;;;;;2.77;2.63;;;4.70;92.20;;;;;;5080622;28;20214;-70
2022/12/18 05:29:33;;;;;;;3.80;3.37;;;4.60;91.90;;;;;;5084784;28;20253;-70
2022/12/18 05:31:59;;;;;;;5.63;3.67;;;4.60;91.90;;;;;;5084508;28;20193;-70
2022/12/18 05:34:24;;;;;;;3.17;2.87;;;4.70;91.90;;;;;;5083568;28;20186;-71
2022/12/18 05:36:50;;;;;;;3.23;3.03;;;4.70;91.80;;;;;;5084364;28;20178;-70
2022/12/18 05:39:15;;;;;;;2.93;2.27;;;4.60;91.70;;;;;;5084192;28;20194;-69
2022/12/18 05:41:41;;;;;;;6.27;2.83;;;4.60;91.70;;;;;;5082567;28;20693;-70
2022/12/18 05:44:07;;;;;;;4.80;3.30;;;4.60;91.70;;;;;;5082432;28;20268;-70
2022/12/18 05:46:33;;;;;;;3.03;2.73;;;4.60;91.70;;;;;;5080748;28;20187;-70
2022/12/18 05:49:01;;;;;;;2.63;2.43;;;4.50;91.70;;;;;;5082603;28;20189;-70
2022/12/18 05:51:27;;;;;;;3.57;2.77;;;4.50;91.70;;;;;;5084351;28;20189;-70
2022/12/18 05:53:53;;;;;;;3.60;3.23;;;4.50;91.30;;;;;;5083500;28;20187;-69
2022/12/18 05:56:21;;;;;;;6.23;3.33;;;4.50;91.00;;;;;;5083927;28;20227;-70
2022/12/18 05:58:47;;;;;;;4.07;3.43;;;4.40;91.00;;;;;;5084361;28;20178;-70
2022/12/18 06:01:18;;;;;;;6.10;2.97;;;4.30;91.00;;;;;;5082156;28;20682;-71
2022/12/18 06:03:44;;;;;;;2.80;2.60;;;4.20;91.10;;;;;;5082471;28;20182;-70
2022/12/18 06:06:36;;;;;;;5.00;3.53;;;4.20;91.30;;;;;;5083906;28;20197;-71
2022/12/18 06:09:08;;;;;;;3.70;3.37;;;4.30;91.30;;;;;;5083812;28;20202;-69
2022/12/18 06:11:35;;;;;;;3.67;3.20;;;4.30;91.40;;;;;;5081554;28;20186;-70
2022/12/18 06:14:01;;;;;;;5.40;3.73;;;4.30;91.40;;;;;;5082070;28;20839;-70
2022/12/18 06:16:27;;;;;;;7.43;3.73;;;4.40;91.50;;;;;;5083185;28;20179;-70
2022/12/18 06:18:56;;;;;;;4.83;3.83;;;4.40;91.40;;;;;;5082252;28;20999;-70
2022/12/18 06:21:22;;;;;;;7.77;3.80;;;4.50;91.30;;;;;;5082395;28;20311;-70
2022/12/18 06:23:47;;;;;;;3.97;3.30;;;4.50;91.10;;;;;;5084034;28;20269;-69
2022/12/18 06:26:13;;;;;;;6.87;3.83;;;4.50;90.80;;;;;;5082648;28;20178;-70
2022/12/18 06:28:39;;;;;;;4.53;3.97;;;4.40;91.10;;;;;;5083194;28;20257;-71
2022/12/18 06:31:06;;;;;;;5.03;3.13;;;4.50;91.20;;;;;;5081059;28;20261;-71
2022/12/18 06:33:33;;;;;;;3.80;3.50;;;4.40;91.20;;;;;;5082527;28;20182;-71
2022/12/18 06:36:11;;;;;;;5.50;3.77;;;4.50;91.20;;;;;;5082210;28;20719;-69
2022/12/18 06:38:41;;;;;;;6.37;4.50;;;4.50;91.20;;;;;;5081074;28;20247;-72
2022/12/18 06:41:13;;;;;;;3.97;3.67;;;4.50;91.20;;;;;;5079023;28;20929;-70
2022/12/18 06:43:38;;;;;;;3.37;2.80;;;4.50;91.20;;;;;;5082385;28;20241;-71
2022/12/18 06:46:04;;;;;;;4.17;3.43;;;4.50;91.00;;;;;;5083459;28;20285;-71
2022/12/18 06:48:31;;;;;;;6.27;3.67;;;4.60;91.00;;;;;;5081302;28;20644;-70
2022/12/18 06:50:57;;;;;;;5.97;4.23;;;4.60;90.70;;;;;;5083049;28;20695;-72
2022/12/18 06:53:23;;;;;;;5.23;2.97;;;4.60;90.40;;;;;;5081996;28;20182;-70
2022/12/18 06:55:49;;;;;;;7.40;4.17;;;4.60;90.00;;;;;;5079993;28;20193;-71
2022/12/18 06:58:14;;;;;;;4.50;3.13;;;4.60;89.90;;;;;;5082403;28;20182;-71
2022/12/18 07:00:40;;;;;;;5.30;4.43;;;4.50;89.90;;;;;;5080548;28;20180;-72
2022/12/18 07:03:06;;;;;;;4.80;3.63;;;4.50;89.90;;;;;;5082033;28;20178;-70
2022/12/18 07:05:31;;;;;;;5.23;3.37;;;4.40;89.30;;;;;;5083286;28;20182;-70
2022/12/18 07:07:58;;;;;;;4.70;3.63;;;4.50;89.30;;;;;;5080389;28;20210;-70
2022/12/18 07:10:24;;;;;;;7.63;4.23;;;4.50;89.30;;;;;;5083179;28;20179;-70
2022/12/18 07:12:49;;;;;;;7.07;4.63;;;4.50;89.40;;;;;;5082403;28;20563;-72
2022/12/18 07:15:15;;;;;;;5.90;3.67;;;4.60;89.60;;;;;;5082716;28;20666;-69
2022/12/18 07:17:41;;;;;;;5.87;3.73;;;4.70;89.60;;;;;;5080294;28;20205;-70
2022/12/18 07:20:07;;;;;;;5.20;4.23;;;4.70;89.40;;;;;;5081013;28;20217;-71
2022/12/18 07:22:33;;;;;;;4.00;3.60;;;4.70;89.50;;;;;;5076285;28;20672;-71
2022/12/18 07:24:59;;;;;;;6.23;4.40;;;4.80;89.30;;;;;;5075340;28;20190;-71
2022/12/18 07:27:24;;;;;;;8.23;4.57;;;4.70;89.20;;;;;;5077799;28;20239;-71
2022/12/18 07:29:50;;;;;;;6.33;3.93;;;4.80;89.10;;;;;;5075855;28;20175;-71
2022/12/18 07:32:16;;;;;;;6.83;4.03;;;4.90;88.90;;;;;;5078559;28;20178;-70
2022/12/18 07:34:41;;;;;;;6.30;4.27;;;4.90;88.70;;;;;;5081094;28;20182;-70
2022/12/18 07:37:07;;;;;;;5.67;4.40;;;4.90;88.50;;;;;;5081859;28;20193;-71
2022/12/18 07:39:33;;;;;;;6.23;4.63;;;4.80;88.50;;;;;;5080291;28;20197;-70
2022/12/18 07:44:43;;;;;;;11.17;5.03;;;4.70;88.90;;;;;;5082415;28;20240;-70
2022/12/18 07:47:09;;;;;;;8.60;4.87;;;4.70;88.90;;;;;;5081673;28;20271;-70
2022/12/18 07:49:36;;;;;;;4.60;4.10;;;4.70;89.00;;;;;;5078216;28;20831;-69
2022/12/18 07:52:02;;;;;;;7.37;4.63;;;4.70;88.90;;;;;;5080219;28;20190;-70
2022/12/18 07:54:27;;;;;;;6.70;5.00;;;4.60;88.80;;;;;;5080912;28;20269;-70
2022/12/18 07:56:53;;;;;;;7.27;5.07;;;4.50;88.90;;;;;;5081043;28;20636;-70
2022/12/18 07:59:19;;;;;;;6.27;4.37;;;4.50;89.20;;;;;;5079443;28;20180;-70
2022/12/18 08:01:46;;;;;;;8.00;4.50;;;4.40;89.20;;;;;;5080066;28;20251;-71
2022/12/18 08:04:12;;;;;;;9.63;5.20;;;4.40;89.50;;;;;;5078498;28;20667;-71
2022/12/18 08:06:38;;;;;;;5.63;4.30;;;4.40;89.70;;;;;;5077613;28;20186;-70
2022/12/18 08:09:04;;;;;;;7.13;5.13;;;4.50;89.80;;;;;;5080106;28;20269;-69
2022/12/18 08:11:30;;;;;;;9.60;5.27;;;4.40;89.70;;;;;;5080130;28;20690;-70
2022/12/18 08:13:56;;;;;;;8.70;5.60;;;4.40;89.80;;;;;;5082044;28;20222;-71
2022/12/18 08:16:22;;;;;;;8.00;5.87;;;4.40;89.80;;;;;;5081362;28;20178;-70
2022/12/18 08:18:48;;;;;;;8.73;5.47;;;4.40;89.60;;;;;;5078979;28;20190;-70
2022/12/18 08:21:16;;;;;;;10.47;6.60;;;4.40;89.50;;;;;;5077785;28;20232;-70
2022/12/18 08:23:41;;;;;;;6.80;4.87;;;4.40;89.30;;;;;;5080645;28;20731;-69
2022/12/18 08:26:07;;;;;;;6.57;5.03;;;4.30;89.40;;;;;;5079882;28;20216;-71
2022/12/18 08:28:33;;;;;;;13.10;6.53;;;4.40;89.40;;;;;;5079544;28;20214;-71
2022/12/18 08:30:59;;;;;;;6.17;4.77;;;4.30;89.40;;;;;;5076622;28;20175;-69
2022/12/18 08:33:26;;;;;;;8.57;5.33;;;4.20;89.50;;;;;;5076976;28;20562;-70
2022/12/18 08:35:52;;;;;;;8.23;5.50;;;4.20;89.60;;;;;;5080482;28;20697;-70
2022/12/18 08:38:17;;;;;;;4.57;3.70;;;4.30;89.50;;;;;;5083661;28;20740;-70
2022/12/18 08:40:43;;;;;;;6.73;4.73;;;4.20;89.40;;;;;;5084809;28;20179;-70
2022/12/18 08:45:56;;;;;;;5.73;4.00;;;4.20;89.40;;;;;;5080616;28;20899;-70
2022/12/18 08:48:22;;;;;;;6.27;4.37;;;4.10;89.30;;;;;;5082980;28;20213;-70
2022/12/18 08:50:58;;;;;;;6.30;4.70;;;4.10;89.00;;;;;;5079038;28;20265;-71
2022/12/18 08:53:25;;;;;;;6.63;4.70;;;4.10;89.50;;;;;;5098977;28;20269;-71
2022/12/18 08:55:51;;;;;;;10.40;4.43;;;4.10;89.40;;;;;;5081909;28;20196;-70
2022/12/18 08:58:16;;;;;;;4.20;3.87;;;4.20;89.40;;;;;;5083987;28;20190;-71
2022/12/18 09:00:42;;;;;;;8.17;4.87;;;4.10;89.00;;;;;;5081619;28;20755;-70
2022/12/18 09:03:26;;;;;;;9.03;5.00;;;4.20;88.80;;;;;;5081826;28;20210;-70
2022/12/18 09:05:51;;;;;;;5.00;4.07;;;4.20;88.30;;;;;;5079326;28;20594;-70
2022/12/18 09:08:17;;;;;;;10.17;5.23;;;4.20;88.10;;;;;;5084405;28;20217;-70
2022/12/18 09:10:44;;;;;;;6.90;4.73;;;4.30;88.20;;;;;;5082636;28;20178;-69
2022/12/18 09:13:11;;;;;;;7.83;4.63;;;4.40;88.30;;;;;;5081508;28;20186;-70
2022/12/18 09:15:46;;;;;;;14.03;5.87;;;4.50;88.00;;;;;;5081439;28;20182;-70
2022/12/18 09:18:13;;;;;;;8.10;5.10;;;4.60;87.80;;;;;;5082521;28;20178;-70
2022/12/18 09:20:39;;;;;;;7.93;5.10;;;4.70;87.70;;;;;;5085064;28;20749;-70
2022/12/18 09:23:05;;;;;;;7.07;5.27;;;4.70;87.10;;;;;;5080904;28;20269;-70
2022/12/18 09:25:33;;;;;;;7.17;4.47;;;4.80;87.00;;;;;;5083700;28;20300;-69
2022/12/18 09:28:12;;;;;;;6.43;4.57;;;4.90;86.80;;;;;;5081974;28;20222;-69
2022/12/18 09:30:39;;;;;;;6.03;3.67;;;4.80;86.20;;;;;;5085309;28;20765;-69
2022/12/18 09:33:06;;;;;;;6.07;4.50;;;4.70;85.50;;;;;;5083040;28;20187;-69
2022/12/18 09:35:31;;;;;;;10.10;4.47;;;4.70;85.60;;;;;;5080746;28;20217;-70
2022/12/18 09:37:57;;;;;;;7.00;4.00;;;4.70;85.30;;;;;;5082693;28;20227;-69
2022/12/18 09:40:28;;;;;;;5.53;4.70;;;4.70;85.50;;;;;;5077411;28;20170;-69
2022/12/18 09:43:00;;;;;;;8.90;5.43;;;4.80;85.40;;;;;;5081017;28;20224;-71
2022/12/18 09:45:26;;;;;;;11.33;4.60;;;4.90;85.30;;;;;;5077292;28;20194;-69
2022/12/18 09:47:54;;;;;;;8.73;4.50;;;4.90;85.20;;;;;;5078745;28;20210;-70
2022/12/18 09:50:37;;;;;;;6.13;4.57;;;5.00;85.20;;;;;;5081479;28;20209;-71
2022/12/18 09:53:15;;;;;;;10.50;5.50;;;5.00;84.50;;;;;;5082210;28;20638;-70
2022/12/18 09:55:48;;;;;;;9.27;4.73;;;5.00;84.40;;;;;;5079963;28;20175;-71
2022/12/18 09:58:32;;;;;;;13.17;5.50;;;5.10;84.80;;;;;;5075988;28;20618;-70
2022/12/18 10:00:58;;;;;;;7.40;4.47;;;5.20;84.80;;;;;;5078203;28;20283;-70
2022/12/18 10:03:23;;;;;;;10.63;4.77;;;5.20;84.30;;;;;;5079890;28;20214;-70
2022/12/18 10:06:01;;;;;;;5.60;4.70;;;5.10;83.70;;;;;;5083377;28;20170;-69
2022/12/18 10:08:49;;;;;;;6.07;4.30;;;5.20;84.30;;;;;;5083005;28;20225;-70
2022/12/18 10:11:30;;;;;;;6.27;4.20;;;5.20;83.70;;;;;;5082160;28;20605;-70
2022/12/18 10:14:17;;;;;;;6.70;4.53;;;5.20;83.40;;;;;;5080647;28;20542;-69
2022/12/18 10:17:10;;;;;;;7.83;4.27;;;5.30;83.80;;;;;;5080666;28;20659;-69
2022/12/18 10:20:04;;;;;;;9.57;4.77;;;5.40;83.40;;;;;;5080475;28;20186;-70
2022/12/18 10:22:48;;;;;;;5.70;4.47;;;5.40;83.70;;;;;;5048211;28;20199;-70
2022/12/18 10:25:45;;;;;;;6.40;4.30;;;5.40;82.70;;;;;;5041972;28;20989;-70
2022/12/18 10:28:14;;;;;;;5.67;3.73;;;5.50;82.80;;;;;;4983985;28;20233;-69
2022/12/18 10:30:42;;;;;;;8.10;5.57;;;5.60;83.00;;;;;;4981051;28;20640;-68
2022/12/18 10:33:17;;;;;;;8.30;4.60;;;5.60;82.70;;;;;;4979284;28;20202;-70
2022/12/18 10:35:44;;;;;;;6.07;3.83;;;5.50;82.00;;;;;;4987611;28;20219;-69
2022/12/18 10:38:16;;;;;;;8.00;5.00;;;5.50;82.70;;;;;;4984420;28;20205;-70
2022/12/18 10:41:00;;;;;;;6.70;4.47;;;5.50;82.80;;;;;;4978175;28;20766;-68
2022/12/18 10:43:25;;;;;;;8.57;4.70;;;5.50;83.00;;;;;;4983679;28;20194;-68
2022/12/18 10:46:00;;;;;;;6.47;4.83;;;5.50;83.00;;;;;;4980678;28;20706;-68
2022/12/18 10:48:27;;;;;;;5.40;4.40;;;5.50;83.20;;;;;;4983056;28;20349;-69
2022/12/18 10:50:54;;;;;;;9.07;4.77;;;5.50;83.00;;;;;;4984726;28;20200;-70
2022/12/18 10:53:42;;;;;;;10.53;6.27;;;5.50;82.20;;;;;;4984000;28;20221;-69
2022/12/18 10:56:08;;;;;;;8.67;5.07;;;5.50;82.40;;;;;;4979971;28;20804;-67
2022/12/18 10:58:38;;;;;;;8.20;5.53;;;5.50;81.80;;;;;;4983898;28;20205;-68
2022/12/18 11:01:19;;;;;;;7.53;4.80;;;5.50;81.90;;;;;;4996780;28;20255;-69
2022/12/18 11:03:46;;;;;;;5.63;4.83;;;5.50;81.90;;;;;;5008052;28;20188;-70
2022/12/18 11:06:24;;;;;;;4.93;4.03;;;5.50;81.40;;;;;;5081087;28;20188;-69
2022/12/18 11:09:19;;;;;;;4.13;3.73;;;5.40;80.70;;;;;;5083851;28;20241;-67
2022/12/18 11:11:56;;;;;;;5.70;3.93;;;5.40;80.10;;;;;;5081485;28;20185;-68
2022/12/18 11:14:33;;;;;;;5.07;4.20;;;5.40;79.70;;;;;;5080652;28;20201;-69
2022/12/18 11:17:00;;;;;;;8.07;4.93;;;5.40;79.90;;;;;;5082632;28;20190;-68
2022/12/18 11:19:33;;;;;;;9.83;6.10;;;5.30;80.10;;;;;;5080424;28;20782;-69
2022/12/18 11:22:01;;;;;;;7.80;4.27;;;5.20;80.40;;;;;;5079584;28;20189;-67
2022/12/18 11:24:29;;;;;;;9.43;4.60;;;5.20;80.80;;;;;;5079865;28;20190;-66
2022/12/18 11:27:01;;;;;;;6.57;4.47;;;5.30;81.00;;;;;;5078758;28;20214;-68
2022/12/18 11:29:38;;;;;;;7.43;3.73;;;5.30;81.10;;;;;;5076199;28;20186;-67
2022/12/18 11:32:31;;;;;;;5.23;4.27;;;5.20;80.80;;;;;;5082897;28;20194;-69
2022/12/18 11:35:21;;;;;;;5.87;3.57;;;5.20;80.90;;;;;;5040234;28;20203;-68
2022/12/18 11:37:57;;;;;;;4.87;4.47;;;5.10;81.10;;;;;;5040386;28;20802;-68
2022/12/18 11:40:34;;;;;;;7.30;4.07;;;5.20;81.50;;;;;;5039196;28;20684;-68
2022/12/18 11:43:07;;;;;;;9.47;5.60;;;5.20;81.60;;;;;;5035603;28;20633;-68
2022/12/18 11:45:40;;;;;;;5.60;3.83;;;5.30;81.10;;;;;;5039849;28;20206;-69
2022/12/18 11:48:36;;;;;;;7.57;4.53;;;5.30;80.70;;;;;;5039328;28;20219;-68
2022/12/18 11:51:11;;;;;;;4.63;3.90;;;5.40;80.90;;;;;;5037895;28;21170;-69
2022/12/18 11:53:38;;;;;;;8.60;4.73;;;5.50;80.40;;;;;;5037193;28;20229;-69
2022/12/18 11:56:30;;;;;;;5.97;3.77;;;5.60;79.90;;;;;;5022001;28;20176;-69
2022/12/18 11:59:20;;;;;;;7.23;4.27;;;5.60;79.70;;;;;;5037191;28;20632;-68
2022/12/18 12:01:48;;;;;;;4.47;4.03;;;5.50;79.80;;;;;;5039386;28;20215;-69
2022/12/18 12:04:32;;;;;;;4.33;3.93;;;5.50;79.80;;;;;;5040944;28;20198;-69
2022/12/18 12:07:10;;;;;;;5.50;4.03;;;5.50;80.20;;;;;;5037464;28;20795;-69
2022/12/18 12:09:53;;;;;;;5.97;4.33;;;5.60;80.60;;;;;;5040212;28;20192;-68
2022/12/18 12:12:47;;;;;;;7.10;4.33;;;5.50;80.30;;;;;;5064682;28;20197;-68
2022/12/18 12:15:30;;;;;;;7.40;4.70;;;5.50;80.30;;;;;;5077416;28;20197;-70
2022/12/18 12:18:08;;;;;;;4.13;3.83;;;5.50;80.50;;;;;;5081210;28;20205;-68
2022/12/18 12:20:45;;;;;;;6.30;4.33;;;5.50;80.40;;;;;;5079699;28;20265;-68
2022/12/18 12:23:59;;;;;;;7.20;4.70;;;5.50;80.70;;;;;;5073847;28;20194;-68
2022/12/18 12:27:00;;;;;;;6.73;3.47;;;5.50;80.60;;;;;;5030010;28;20195;-71
2022/12/18 12:29:44;;;;;;;8.70;5.53;;;5.60;80.40;;;;;;5045454;28;20260;-69
2022/12/18 12:32:36;;;;;;;5.53;4.40;;;5.60;80.70;;;;;;5047899;28;20183;-69
2022/12/18 12:35:35;;;;;;;11.37;5.50;;;5.70;80.80;;;;;;5048701;28;20202;-69
2022/12/18 12:38:13;;;;;;;6.93;5.53;;;5.80;80.80;;;;;;5027665;28;20191;-69
2022/12/18 12:41:01;;;;;;;7.87;4.17;;;5.80;80.60;;;;;;5045247;28;20190;-69
2022/12/18 12:43:42;;;;;;;6.13;4.40;;;5.80;80.70;;;;;;5046628;28;20220;-68
2022/12/18 12:46:13;;;;;;;9.73;5.13;;;5.70;80.50;;;;;;5050149;28;20354;-69
2022/12/18 12:48:49;;;;;;;7.40;5.40;;;5.70;80.50;;;;;;5046104;28;20295;-70
2022/12/18 12:51:17;;;;;;;12.00;6.47;;;5.70;80.90;;;;;;5048222;28;20294;-68
2022/12/18 12:53:43;;;;;;;8.17;5.30;;;5.80;81.00;;;;;;5048345;28;20682;-68
2022/12/18 12:56:13;;;;;;;9.43;5.70;;;5.90;81.10;;;;;;5051093;28;20385;-68
2022/12/18 12:58:44;;;;;;;12.07;6.00;;;5.90;80.70;;;;;;5049387;28;20187;-69
2022/12/18 13:01:28;;;;;;;10.07;6.00;;;5.90;80.70;;;;;;5050786;28;20289;-69
2022/12/18 13:03:59;;;;;;;8.57;5.20;;;5.90;80.80;;;;;;5073073;28;20250;-68
2022/12/18 13:06:45;;;;;;;8.53;5.57;;;6.00;80.60;;;;;;5079446;28;20178;-68
2022/12/18 13:09:11;;;;;;;11.27;5.97;;;6.00;80.70;;;;;;5077721;28;20874;-69
2022/12/18 13:14:35;;;;;;;10.03;5.80;;;5.80;79.80;;;;;;5080262;28;21128;-69
2022/12/18 13:17:19;;;;;;;10.50;5.60;;;5.80;80.00;;;;;;5080117;28;20187;-69
2022/12/18 13:20:02;;;;;;;7.53;5.20;;;5.80;80.20;;;;;;5080062;28;20179;-69
2022/12/18 13:22:36;;;;;;;7.70;5.53;;;5.80;80.20;;;;;;5079347;28;20190;-70
2022/12/18 13:25:03;;;;;;;6.13;4.30;;;5.70;80.10;;;;;;5078593;28;20193;-69
2022/12/18 13:27:44;;;;;;;8.70;5.20;;;5.70;80.30;;;;;;5078947;28;20322;-69